Birtle, Canada
Current Conditions -  °F | °C
As of 3:00 AM on Sunday 21 Dec 2014 (Local Time) from CYBR Reporting Station
Haze Haze  
Wind Chill: 25°   Ceiling: 1000
Heat Index: 25°   Visibility: 2mi
Dew Point: 25°   Wind: 3mph
Humidity: 100%   Direction: 110°ESE
Pressure: 29.67"   Gusts: NA
Location:  50.43°N, 101.05°W
Report Text: CYBR 210900Z 11003KT 2SM BR SCT002 OVC010 M04/M04 A2967 RMK ST3ST5 SLP073
Loading
Personal Weather Stations






























Interactive Weather Map New forecast layout! Learn more

10-Day Weather Forecast

Advertisements
Track Severe Weather on mobile